Guilin, China

01:16 PM CST am 28. Juni 2017 (GMT +0800)
Liangjiang | | Change Station

Höhe 545 ft 25.33 °N, 110.30 °E | Updated 16 minutes ago

Regen
Regen
73 °F
gefühlte 73 °F
N
0
Wind Wechselnd Wind aus Nord

Heute
Max. -- | schwach -- °F
--% Regenrisiko
Gestern
Max. -- | schwach -- °F
Precip. -- inch
Druck 29.80 inch
Sichtweite 3.1 Meilen
Wolken Few 600 ft
Teils Wolkig 2300 ft
Bedeckt 4000 ft
Taupunkt 73 °F
Feuchtigkeit 100%
Regen 0.00 inch
Schneehöhe Nicht verfügbar..
5:50 AM 7:33 PM
Erstes Viertel, 22% visible
METAR ZGKL 280500Z 00000MPS 5000 -RA BR FEW006 SCT023 OVC040 23/23 Q1009 BECMG FM0600 RA
Druck 29.80 inch
Sichtweite 3.1 Meilen
Wolken Few 600 ft
Teils Wolkig 2300 ft
Bedeckt 4000 ft
Taupunkt 73 °F
Feuchtigkeit 100%
Regen 0.00 inch
Schneehöhe Nicht verfügbar..
5:50 AM 7:33 PM
Erstes Viertel, 22% visible
METAR ZGKL 280500Z 00000MPS 5000 -RA BR FEW006 SCT023 OVC040 23/23 Q1009 BECMG FM0600 RA

Get Severe Weather Alerts

Thanks for signing up!

Be on the lookout for a verification email in your inbox.

You'll start receiving the daily forecast at 6 AM.

×

10-Day Weather Forecast

No radar image for this location.
×

Almanac

Astronomie

Jun. 28, 2017 Aufgang Untergang
Genaue Zeit
Bürgerliche Dämmerung
Nautische Dämmerung
Astronomische Dämmerung
Mond
Länge des sichtbaren Lichts
Tageslänge
Tomorrow will be .
, % of the Moon is Illuminated

Heutige Rekorde

Country Highs Country Lows

Community

WunderPhotos

Category 6

Welcome to Category 6. This is the collective home for Weather Underground's featured writeups by Dr. Jeff Masters (right), Bob Henson (left), Chris Burt, and other regular contributors.

Nearby

Luftqualität

  Luftqualität LQ Index Schadstoff
Not available.

Schneehöhe

Station Depth Höhe

Erdbebenaktivität

Stadt Distance Mag. Time & Date
Minimum magnitude displayed is 2.5.

küstennahe Wassertemperaturen

Ort Temperatur

Stations

Wetterstationen in der Umgebung

Stationsstandort Temp. Windchill Taupunkt Feuchtigkeit Wind Precip. Höhe Aktualisiert Art